Time;durP1;ratioP1;P1;durP2;ratioP2;P2;SDS_P1;SDS_P2;PMS_P1;PMS_P2;Temp;Humidity;BMP_temperature;BMP_pressure;BME280_temperature;BME280_humidity;BME280_pressure;Samples;Min_cycle;Max_cycle;Signal;HPM_P1;HPM_P2
2023/04/26 00:00:54;;;;;;;16.92;4.07;;;;;;;;;;5015363;28;20066;-74
2023/04/26 00:03:20;;;;;;;15.60;4.80;;;;;;;;;;5021106;28;20623;-74
2023/04/26 00:05:47;;;;;;;11.68;4.25;;;;;;;;;;5014358;28;20057;-73
2023/04/26 00:08:14;;;;;;;11.13;3.83;;;;;;;;;;5033726;28;20081;-74
2023/04/26 00:10:40;;;;;;;10.10;3.88;;;;;;;;;;5031016;28;20931;-74
2023/04/26 00:13:07;;;;;;;11.13;4.13;;;;;;;;;;5007219;28;20058;-73
2023/04/26 00:15:33;;;;;;;11.73;3.92;;;;;;;;;;5006234;28;20058;-74
2023/04/26 00:17:59;;;;;;;11.27;3.45;;;;;;;;;;5017321;28;20065;-74
2023/04/26 00:20:26;;;;;;;11.27;3.97;;;;;;;;;;5013927;28;20061;-74
2023/04/26 00:22:52;;;;;;;11.95;4.28;;;;;;;;;;5011551;28;20498;-74
2023/04/26 00:25:18;;;;;;;12.55;4.10;;;;;;;;;;5015408;28;20449;-73
2023/04/26 00:27:45;;;;;;;8.77;3.47;;;;;;;;;;5010975;28;20475;-74
2023/04/26 00:30:12;;;;;;;10.73;4.25;;;;;;;;;;5020396;28;20054;-74
2023/04/26 00:32:38;;;;;;;11.25;3.95;;;;;;;;;;5017953;28;20128;-73
2023/04/26 00:35:05;;;;;;;12.20;3.97;;;;;;;;;;5032837;28;20501;-73
2023/04/26 00:37:31;;;;;;;9.45;4.38;;;;;;;;;;5014424;28;20050;-74
2023/04/26 00:39:58;;;;;;;10.63;3.55;;;;;;;;;;5016219;28;20785;-74
2023/04/26 00:42:26;;;;;;;9.85;3.60;;;;;;;;;;5024646;28;20440;-74
2023/04/26 00:44:56;;;;;;;12.18;4.38;;;;;;;;;;5032958;28;20054;-73
2023/04/26 00:47:23;;;;;;;9.90;4.45;;;;;;;;;;5007388;28;20149;-74
2023/04/26 00:49:50;;;;;;;8.90;4.68;;;;;;;;;;5020419;28;20064;-73
2023/04/26 00:52:16;;;;;;;8.02;4.00;;;;;;;;;;5033424;28;20057;-73
2023/04/26 00:54:43;;;;;;;8.25;3.97;;;;;;;;;;5023553;28;20054;-73
2023/04/26 00:57:11;;;;;;;9.52;4.22;;;;;;;;;;5023884;28;20050;-74
2023/04/26 00:59:37;;;;;;;12.30;3.85;;;;;;;;;;5022252;28;20230;-73
2023/04/26 01:02:03;;;;;;;11.10;4.20;;;;;;;;;;5022099;28;20064;-73
2023/04/26 01:04:30;;;;;;;9.88;3.80;;;;;;;;;;5027776;28;20144;-73
2023/04/26 01:06:57;;;;;;;8.65;3.30;;;;;;;;;;5025411;28;20073;-74
2023/04/26 01:09:23;;;;;;;10.35;3.60;;;;;;;;;;5023243;28;20077;-73
2023/04/26 01:11:50;;;;;;;16.17;3.83;;;;;;;;;;5016699;28;20692;-74
2023/04/26 01:14:16;;;;;;;8.25;3.15;;;;;;;;;;5022667;28;20800;-74
2023/04/26 01:16:45;;;;;;;11.45;3.50;;;;;;;;;;5017751;28;20060;-74
2023/04/26 01:19:12;;;;;;;10.18;3.47;;;;;;;;;;5013082;28;20058;-74
2023/04/26 01:21:39;;;;;;;9.95;3.95;;;;;;;;;;5021578;28;20053;-73
2023/04/26 01:24:05;;;;;;;13.30;3.70;;;;;;;;;;5045928;28;20057;-74
2023/04/26 01:26:32;;;;;;;10.95;3.92;;;;;;;;;;5043912;28;20141;-73
2023/04/26 01:28:58;;;;;;;8.55;3.85;;;;;;;;;;5021893;28;20054;-74
2023/04/26 01:31:24;;;;;;;13.20;4.18;;;;;;;;;;5017305;28;20054;-74
2023/04/26 01:33:51;;;;;;;10.27;4.25;;;;;;;;;;5012060;28;20057;-73
2023/04/26 01:36:17;;;;;;;12.32;4.25;;;;;;;;;;5021872;28;20058;-74
2023/04/26 01:38:44;;;;;;;10.55;3.47;;;;;;;;;;5020906;28;20060;-73
2023/04/26 01:41:10;;;;;;;9.52;3.88;;;;;;;;;;5017446;28;20416;-74
2023/04/26 01:43:37;;;;;;;9.52;4.07;;;;;;;;;;5029468;28;20080;-74
2023/04/26 01:46:03;;;;;;;11.45;4.35;;;;;;;;;;5014937;28;20054;-74
2023/04/26 01:48:30;;;;;;;13.13;4.32;;;;;;;;;;5017940;28;20061;-74
2023/04/26 01:50:56;;;;;;;9.90;4.07;;;;;;;;;;5011312;28;20077;-74
2023/04/26 01:53:22;;;;;;;8.23;3.70;;;;;;;;;;5023074;28;20053;-74
2023/04/26 01:55:49;;;;;;;9.70;3.65;;;;;;;;;;5014433;28;20059;-73
2023/04/26 01:58:15;;;;;;;11.18;3.58;;;;;;;;;;5035776;28;20145;-74
2023/04/26 02:00:42;;;;;;;11.13;3.83;;;;;;;;;;5007837;28;20058;-73
2023/04/26 02:03:08;;;;;;;15.20;4.20;;;;;;;;;;5023065;28;20058;-74
2023/04/26 02:05:34;;;;;;;12.07;4.00;;;;;;;;;;5017814;28;20132;-73
2023/04/26 02:08:01;;;;;;;8.95;4.20;;;;;;;;;;5014362;28;20057;-73
2023/04/26 02:10:27;;;;;;;10.00;5.03;;;;;;;;;;5018460;28;20110;-74
2023/04/26 02:12:54;;;;;;;13.15;5.20;;;;;;;;;;5005687;28;20138;-73
2023/04/26 02:15:20;;;;;;;11.85;5.20;;;;;;;;;;5019326;28;20088;-74
2023/04/26 02:17:48;;;;;;;12.70;4.95;;;;;;;;;;5038721;28;20060;-74
2023/04/26 02:20:15;;;;;;;11.07;4.00;;;;;;;;;;5016964;28;20058;-73
2023/04/26 02:22:41;;;;;;;10.63;3.70;;;;;;;;;;5009856;28;20137;-73
2023/04/26 02:25:08;;;;;;;8.38;3.97;;;;;;;;;;5016742;28;20528;-74
2023/04/26 02:27:34;;;;;;;11.13;3.78;;;;;;;;;;5028031;28;20504;-73
2023/04/26 02:30:01;;;;;;;10.43;4.05;;;;;;;;;;5039207;28;20081;-73
2023/04/26 02:32:27;;;;;;;9.32;3.20;;;;;;;;;;5034886;28;20050;-74
2023/04/26 02:34:53;;;;;;;9.90;3.40;;;;;;;;;;5015668;28;20520;-74
2023/04/26 02:37:20;;;;;;;6.07;3.28;;;;;;;;;;5007330;28;20133;-74
2023/04/26 02:39:50;;;;;;;7.88;3.17;;;;;;;;;;5033954;28;20072;-73
2023/04/26 02:42:17;;;;;;;9.90;3.83;;;;;;;;;;5017605;28;20136;-74
2023/04/26 02:44:43;;;;;;;8.93;3.80;;;;;;;;;;5037775;28;21152;-74
2023/04/26 02:47:09;;;;;;;10.30;4.30;;;;;;;;;;5021870;28;20141;-73
2023/04/26 02:49:36;;;;;;;8.70;3.58;;;;;;;;;;5006762;28;20082;-74
2023/04/26 02:52:02;;;;;;;10.45;4.75;;;;;;;;;;5032130;28;20086;-74
2023/04/26 02:54:28;;;;;;;12.25;4.40;;;;;;;;;;5023884;28;20050;-74
2023/04/26 02:56:55;;;;;;;11.48;4.35;;;;;;;;;;5022715;28;20092;-73
2023/04/26 02:59:21;;;;;;;9.65;4.35;;;;;;;;;;5021600;28;20054;-73
2023/04/26 03:01:47;;;;;;;9.93;4.65;;;;;;;;;;5029546;28;20049;-73
2023/04/26 03:04:16;;;;;;;14.25;4.65;;;;;;;;;;5023740;28;20440;-73
2023/04/26 03:06:42;;;;;;;12.60;4.18;;;;;;;;;;5026896;28;20552;-74
2023/04/26 03:09:09;;;;;;;12.35;4.57;;;;;;;;;;5017167;28;20054;-73
2023/04/26 03:11:35;;;;;;;11.93;4.32;;;;;;;;;;5013393;28;20165;-73
2023/04/26 03:14:02;;;;;;;21.33;5.20;;;;;;;;;;5012233;28;20141;-74
2023/04/26 03:16:28;;;;;;;10.77;5.05;;;;;;;;;;5022351;28;20053;-74
2023/04/26 03:18:54;;;;;;;11.57;5.35;;;;;;;;;;5015633;28;20065;-74
2023/04/26 03:21:21;;;;;;;12.85;4.50;;;;;;;;;;5022141;28;20874;-73
2023/04/26 03:23:47;;;;;;;10.45;4.15;;;;;;;;;;5005509;28;20061;-74
2023/04/26 03:26:14;;;;;;;10.55;4.32;;;;;;;;;;5029401;28;20520;-74
2023/04/26 03:28:40;;;;;;;9.88;3.97;;;;;;;;;;5037871;28;20054;-74
2023/04/26 03:31:07;;;;;;;11.82;4.22;;;;;;;;;;5033935;28;20544;-73
2023/04/26 03:33:33;;;;;;;12.57;4.03;;;;;;;;;;5006272;28;20551;-74
2023/04/26 03:35:59;;;;;;;13.05;3.80;;;;;;;;;;5027046;28;20148;-74
2023/04/26 03:38:26;;;;;;;8.65;4.15;;;;;;;;;;5008291;28;20054;-73
2023/04/26 03:40:52;;;;;;;14.15;4.18;;;;;;;;;;5029741;28;20057;-74
2023/04/26 03:43:18;;;;;;;16.45;4.30;;;;;;;;;;5025497;28;20140;-74
2023/04/26 03:45:48;;;;;;;15.95;4.90;;;;;;;;;;5017691;28;20513;-74
2023/04/26 03:48:15;;;;;;;12.50;4.50;;;;;;;;;;5024768;28;20560;-74
2023/04/26 03:50:43;;;;;;;12.60;4.57;;;;;;;;;;5011371;28;20417;-73
2023/04/26 03:53:10;;;;;;;11.10;4.05;;;;;;;;;;5030496;28;20058;-74
2023/04/26 03:55:37;;;;;;;12.88;5.35;;;;;;;;;;5020653;28;20135;-73
2023/04/26 03:58:06;;;;;;;12.68;4.20;;;;;;;;;;5020839;28;20045;-73
2023/04/26 04:00:37;;;;;;;16.45;4.20;;;;;;;;;;5045247;28;20056;-73
2023/04/26 04:03:03;;;;;;;8.38;3.83;;;;;;;;;;5022946;28;20054;-73
2023/04/26 04:05:30;;;;;;;10.63;4.20;;;;;;;;;;5012768;28;20576;-73
2023/04/26 04:07:56;;;;;;;9.30;3.90;;;;;;;;;;5013360;28;20057;-73
2023/04/26 04:10:23;;;;;;;11.68;4.20;;;;;;;;;;5021206;28;20062;-74
2023/04/26 04:12:50;;;;;;;10.85;4.43;;;;;;;;;;5007903;28;20054;-74
2023/04/26 04:15:17;;;;;;;13.50;4.45;;;;;;;;;;5039116;28;20060;-73
2023/04/26 04:17:44;;;;;;;13.68;4.95;;;;;;;;;;5025249;28;20050;-74
2023/04/26 04:20:11;;;;;;;12.00;5.28;;;;;;;;;;5010254;28;20058;-74
2023/04/26 04:22:38;;;;;;;14.38;5.63;;;;;;;;;;5029227;28;20169;-74
2023/04/26 04:25:05;;;;;;;9.77;4.75;;;;;;;;;;5017282;28;20046;-74
2023/04/26 04:27:32;;;;;;;14.23;5.90;;;;;;;;;;5005899;28;20058;-73
2023/04/26 04:29:58;;;;;;;11.48;5.57;;;;;;;;;;5018521;28;20061;-74
2023/04/26 04:32:25;;;;;;;10.43;4.80;;;;;;;;;;5023118;28;20057;-74
2023/04/26 04:34:52;;;;;;;16.63;5.60;;;;;;;;;;5023465;28;20064;-74
2023/04/26 04:37:20;;;;;;;10.57;5.03;;;;;;;;;;5038613;28;20180;-73
2023/04/26 04:39:46;;;;;;;11.07;5.20;;;;;;;;;;5020846;28;20059;-74
2023/04/26 04:42:12;;;;;;;15.23;6.07;;;;;;;;;;5021251;28;20060;-74
2023/04/26 04:44:40;;;;;;;16.67;5.28;;;;;;;;;;5028411;28;20142;-74
2023/04/26 04:47:07;;;;;;;14.95;5.03;;;;;;;;;;5026199;28;20096;-74
2023/04/26 04:49:36;;;;;;;15.18;5.55;;;;;;;;;;5017057;28;20266;-74
2023/04/26 04:52:03;;;;;;;12.82;5.35;;;;;;;;;;5004170;28;20110;-73
2023/04/26 04:54:29;;;;;;;13.93;5.68;;;;;;;;;;5021475;28;20875;-74
2023/04/26 04:56:56;;;;;;;13.52;5.78;;;;;;;;;;5008173;28;20142;-74
2023/04/26 04:59:22;;;;;;;13.93;5.45;;;;;;;;;;5034906;28;20864;-74
2023/04/26 05:01:49;;;;;;;13.05;5.00;;;;;;;;;;5033057;28;20487;-74
2023/04/26 05:04:16;;;;;;;12.35;4.45;;;;;;;;;;5009587;28;20608;-74
2023/04/26 05:06:42;;;;;;;12.38;5.00;;;;;;;;;;5022565;28;20061;-74
2023/04/26 05:09:10;;;;;;;13.70;4.95;;;;;;;;;;5022593;28;20505;-74
2023/04/26 05:11:36;;;;;;;14.65;5.18;;;;;;;;;;5013181;28;20082;-74
2023/04/26 05:14:03;;;;;;;17.85;4.80;;;;;;;;;;5010434;28;20058;-71
2023/04/26 05:16:29;;;;;;;15.95;5.00;;;;;;;;;;5019734;28;20175;-74
2023/04/26 05:18:55;;;;;;;12.18;5.55;;;;;;;;;;5021636;28;20057;-74
2023/04/26 05:21:22;;;;;;;13.70;5.70;;;;;;;;;;5026720;28;20144;-74
2023/04/26 05:23:49;;;;;;;13.70;5.90;;;;;;;;;;5033935;28;20054;-74
2023/04/26 05:26:16;;;;;;;12.48;5.03;;;;;;;;;;5022692;28;20505;-74
2023/04/26 05:28:42;;;;;;;16.90;6.20;;;;;;;;;;5024067;28;20060;-74
2023/04/26 05:31:09;;;;;;;14.00;5.88;;;;;;;;;;5016824;28;20051;-74
2023/04/26 05:33:36;;;;;;;13.68;6.15;;;;;;;;;;5008262;28;20085;-75
2023/04/26 05:36:03;;;;;;;13.85;6.30;;;;;;;;;;5017815;28;20089;-75
2023/04/26 05:38:30;;;;;;;16.10;6.20;;;;;;;;;;5009971;28;20054;-75
2023/04/26 05:40:56;;;;;;;13.25;5.03;;;;;;;;;;5014962;28;20057;-74
2023/04/26 05:43:22;;;;;;;15.45;6.00;;;;;;;;;;5044502;28;20054;-75
2023/04/26 05:45:52;;;;;;;17.40;6.28;;;;;;;;;;5026004;28;20149;-75
2023/04/26 05:48:19;;;;;;;16.38;5.97;;;;;;;;;;5012639;28;20104;-74
2023/04/26 05:50:46;;;;;;;18.33;6.55;;;;;;;;;;5010502;28;20152;-74
2023/04/26 05:53:13;;;;;;;17.90;5.93;;;;;;;;;;5007184;28;20050;-74
2023/04/26 05:55:46;;;;;;;18.00;6.60;;;;;;;;;;5005544;28;20141;-74
2023/04/26 05:58:12;;;;;;;19.52;6.78;;;;;;;;;;5007490;28;20054;-74
2023/04/26 06:00:39;;;;;;;19.88;5.97;;;;;;;;;;5023526;28;20054;-74
2023/04/26 06:03:06;;;;;;;14.45;6.22;;;;;;;;;;5008434;28;20050;-74
2023/04/26 06:05:32;;;;;;;19.63;6.20;;;;;;;;;;5019798;28;20061;-74
2023/04/26 06:08:00;;;;;;;13.82;6.13;;;;;;;;;;5019485;28;20058;-74
2023/04/26 06:10:26;;;;;;;15.70;6.55;;;;;;;;;;5022267;28;20046;-74
2023/04/26 06:12:53;;;;;;;13.50;5.93;;;;;;;;;;5024441;28;20140;-74
2023/04/26 06:15:19;;;;;;;13.27;6.10;;;;;;;;;;5035225;28;20046;-75
2023/04/26 06:17:45;;;;;;;16.05;6.22;;;;;;;;;;5018975;28;20046;-75
2023/04/26 06:20:12;;;;;;;14.90;5.55;;;;;;;;;;5011238;28;20058;-76
2023/04/26 06:22:38;;;;;;;14.30;5.72;;;;;;;;;;5022146;28;20058;-74
2023/04/26 06:25:05;;;;;;;12.63;4.78;;;;;;;;;;5023486;28;20143;-74
2023/04/26 06:27:32;;;;;;;12.98;5.03;;;;;;;;;;5011270;28;20145;-74
2023/04/26 06:29:58;;;;;;;13.00;5.03;;;;;;;;;;5019095;28;20054;-75
2023/04/26 06:32:25;;;;;;;11.57;5.20;;;;;;;;;;5004101;28;20058;-75
2023/04/26 06:34:51;;;;;;;15.82;4.80;;;;;;;;;;5022495;28;20062;-75
2023/04/26 06:37:18;;;;;;;16.70;4.80;;;;;;;;;;5014148;28;20134;-75
2023/04/26 06:39:44;;;;;;;15.00;4.18;;;;;;;;;;5018164;28;20057;-75
2023/04/26 06:42:11;;;;;;;12.45;3.67;;;;;;;;;;5015197;28;20146;-75
2023/04/26 06:44:37;;;;;;;12.20;3.58;;;;;;;;;;5010832;28;20050;-75
2023/04/26 06:47:05;;;;;;;8.05;3.53;;;;;;;;;;5021705;28;20054;-75
2023/04/26 06:49:32;;;;;;;9.40;2.95;;;;;;;;;;5013288;28;20046;-75
2023/04/26 06:51:58;;;;;;;12.70;3.55;;;;;;;;;;5017619;28;20057;-75
2023/04/26 06:54:28;;;;;;;8.65;2.72;;;;;;;;;;5007891;28;20165;-75
2023/04/26 06:56:54;;;;;;;5.40;2.50;;;;;;;;;;5004606;28;20058;-75
2023/04/26 06:59:21;;;;;;;9.10;2.88;;;;;;;;;;5008005;28;20587;-75
2023/04/26 07:01:47;;;;;;;8.95;2.85;;;;;;;;;;5012973;28;20078;-75
2023/04/26 07:04:15;;;;;;;11.75;3.28;;;;;;;;;;5027961;28;20054;-74
2023/04/26 07:06:42;;;;;;;9.18;2.92;;;;;;;;;;5010509;28;20496;-75
2023/04/26 07:09:09;;;;;;;13.50;2.72;;;;;;;;;;5008310;28;20137;-74
2023/04/26 07:11:35;;;;;;;7.53;2.47;;;;;;;;;;5010235;28;20579;-75
2023/04/26 07:14:01;;;;;;;9.88;2.70;;;;;;;;;;5006774;28;20210;-75
2023/04/26 07:16:28;;;;;;;10.20;2.38;;;;;;;;;;5005976;28;20046;-74
2023/04/26 07:18:57;;;;;;;5.95;2.28;;;;;;;;;;5011576;28;20638;-74
2023/04/26 07:21:24;;;;;;;9.30;2.70;;;;;;;;;;5040950;28;20511;-74
2023/04/26 07:23:56;;;;;;;8.55;1.85;;;;;;;;;;5037622;28;20089;-74
2023/04/26 07:26:23;;;;;;;6.32;1.88;;;;;;;;;;5025711;28;20060;-74
2023/04/26 07:28:53;;;;;;;9.88;2.33;;;;;;;;;;5018225;28;20086;-74
2023/04/26 07:31:19;;;;;;;5.93;2.15;;;;;;;;;;5006584;28;20054;-74
2023/04/26 07:33:46;;;;;;;8.68;2.45;;;;;;;;;;5020781;28;20097;-74
2023/04/26 07:36:12;;;;;;;6.65;2.20;;;;;;;;;;5021527;28;20140;-74
2023/04/26 07:38:39;;;;;;;5.55;2.30;;;;;;;;;;5031593;28;20053;-75
2023/04/26 07:41:05;;;;;;;6.43;2.40;;;;;;;;;;5040203;28;20050;-75
2023/04/26 07:43:32;;;;;;;9.93;2.35;;;;;;;;;;5032437;28;20061;-75
2023/04/26 07:46:01;;;;;;;7.88;2.28;;;;;;;;;;5011498;28;20057;-75
2023/04/26 07:48:28;;;;;;;10.65;2.63;;;;;;;;;;5024480;28;20057;-74
2023/04/26 07:50:54;;;;;;;8.48;2.67;;;;;;;;;;5026136;28;20136;-75
2023/04/26 07:53:21;;;;;;;5.90;2.17;;;;;;;;;;5022646;28;20065;-74
2023/04/26 07:55:49;;;;;;;9.35;2.42;;;;;;;;;;5025008;28;20081;-75
2023/04/26 07:58:15;;;;;;;7.82;2.40;;;;;;;;;;5031410;28;20054;-74
2023/04/26 08:00:44;;;;;;;10.63;2.40;;;;;;;;;;5037942;28;20819;-74
2023/04/26 08:03:13;;;;;;;5.30;1.80;;;;;;;;;;5032230;28;20054;-74
2023/04/26 08:05:40;;;;;;;6.80;2.00;;;;;;;;;;5005831;28;20500;-75
2023/04/26 08:08:07;;;;;;;7.20;1.92;;;;;;;;;;5004383;28;20058;-74
2023/04/26 08:10:33;;;;;;;4.95;1.70;;;;;;;;;;5031338;28;20042;-74
2023/04/26 08:13:02;;;;;;;8.88;2.25;;;;;;;;;;5030415;28;20054;-75
2023/04/26 08:15:28;;;;;;;10.02;2.08;;;;;;;;;;5043943;28;20551;-74
2023/04/26 08:17:55;;;;;;;10.20;1.90;;;;;;;;;;5025386;28;20514;-74
2023/04/26 08:20:21;;;;;;;6.38;1.90;;;;;;;;;;5005395;28;20097;-74
2023/04/26 08:22:48;;;;;;;6.15;1.90;;;;;;;;;;5016746;28;20054;-74
2023/04/26 08:25:14;;;;;;;4.15;1.70;;;;;;;;;;5023789;28;20050;-74
2023/04/26 08:27:41;;;;;;;4.93;1.67;;;;;;;;;;5010473;28;20058;-75
2023/04/26 08:30:07;;;;;;;6.90;1.63;;;;;;;;;;5028261;28;20121;-74
2023/04/26 08:32:34;;;;;;;5.88;1.60;;;;;;;;;;5032765;28;20373;-75
2023/04/26 08:35:00;;;;;;;9.50;1.80;;;;;;;;;;5020877;28;20606;-74
2023/04/26 08:37:27;;;;;;;5.55;1.65;;;;;;;;;;5027028;28;20054;-75
2023/04/26 08:39:57;;;;;;;6.03;1.88;;;;;;;;;;5022418;28;20065;-75
2023/04/26 08:42:25;;;;;;;7.03;2.05;;;;;;;;;;5026839;28;20975;-75
2023/04/26 08:44:55;;;;;;;8.25;2.28;;;;;;;;;;5024620;28;20049;-75
2023/04/26 08:47:27;;;;;;;4.45;1.83;;;;;;;;;;5020338;28;20099;-74
2023/04/26 08:49:59;;;;;;;7.18;2.47;;;;;;;;;;5027000;28;20423;-74
2023/04/26 08:52:26;;;;;;;6.70;1.92;;;;;;;;;;5023067;28;20053;-74
2023/04/26 08:54:54;;;;;;;5.82;1.70;;;;;;;;;;5020463;28;20141;-74
2023/04/26 08:57:21;;;;;;;7.75;1.38;;;;;;;;;;5039362;28;20123;-74
2023/04/26 08:59:48;;;;;;;6.80;1.88;;;;;;;;;;5018017;28;20112;-74
2023/04/26 09:02:21;;;;;;;7.53;1.90;;;;;;;;;;5030508;28;20050;-74
2023/04/26 09:04:49;;;;;;;8.05;1.92;;;;;;;;;;5024009;28;20904;-75
2023/04/26 09:07:37;;;;;;;5.70;1.88;;;;;;;;;;5027618;28;20058;-74
2023/04/26 09:10:05;;;;;;;6.38;1.58;;;;;;;;;;5017235;28;20046;-74
2023/04/26 09:12:31;;;;;;;3.97;1.30;;;;;;;;;;5017990;28;20144;-75
2023/04/26 09:14:57;;;;;;;4.80;1.40;;;;;;;;;;5003619;28;20173;-75
2023/04/26 09:17:31;;;;;;;8.05;1.80;;;;;;;;;;5011023;28;20065;-75
2023/04/26 09:19:58;;;;;;;6.63;2.47;;;;;;;;;;5023151;28;20060;-75
2023/04/26 09:22:28;;;;;;;5.40;1.70;;;;;;;;;;5022044;28;20060;-74
2023/04/26 09:24:55;;;;;;;6.30;1.60;;;;;;;;;;5022161;28;20112;-74
2023/04/26 09:27:21;;;;;;;5.22;1.27;;;;;;;;;;5007661;28;20060;-75
2023/04/26 09:30:04;;;;;;;3.60;1.20;;;;;;;;;;5012264;28;20130;-75
2023/04/26 09:32:42;;;;;;;8.07;1.70;;;;;;;;;;5018442;28;20050;-75
2023/04/26 09:35:28;;;;;;;5.25;1.75;;;;;;;;;;5020827;28;20978;-74
2023/04/26 09:38:04;;;;;;;6.57;1.73;;;;;;;;;;5031767;28;21674;-74
2023/04/26 09:40:42;;;;;;;9.52;1.80;;;;;;;;;;5013463;28;20054;-74
2023/04/26 09:43:08;;;;;;;;;;;;;;;;;;5024589;28;20484;-74
2023/04/26 09:45:43;;;;;;;8.00;2.08;;;;;;;;;;5005159;28;44773;-74
2023/04/26 09:48:16;;;;;;;6.78;1.85;;;;;;;;;;5009758;28;20050;-74
2023/04/26 09:50:44;;;;;;;3.20;1.50;;;;;;;;;;5019109;28;20132;-77
2023/04/26 09:53:23;;;;;;;6.25;2.20;;;;;;;;;;5042903;28;20142;-74
2023/04/26 09:55:49;;;;;;;8.10;1.70;;;;;;;;;;5022506;28;20060;-74
2023/04/26 09:58:19;;;;;;;5.03;1.45;;;;;;;;;;5020283;28;20543;-74
2023/04/26 10:00:48;;;;;;;5.45;1.45;;;;;;;;;;5014718;28;20078;-75
2023/04/26 10:03:16;;;;;;;6.78;1.40;;;;;;;;;;5016256;28;21003;-74
2023/04/26 10:05:43;;;;;;;3.45;1.25;;;;;;;;;;5004592;28;20132;-74
2023/04/26 10:08:10;;;;;;;8.40;1.30;;;;;;;;;;5015859;28;20184;-74
2023/04/26 10:10:37;;;;;;;5.45;1.60;;;;;;;;;;5018374;28;20488;-74
2023/04/26 10:13:04;;;;;;;5.45;1.30;;;;;;;;;;5011727;28;20108;-75
2023/04/26 10:15:34;;;;;;;3.13;1.15;;;;;;;;;;5026602;28;20061;-73
2023/04/26 10:18:01;;;;;;;6.07;1.30;;;;;;;;;;5021406;28;20050;-73
2023/04/26 10:20:27;;;;;;;4.25;1.33;;;;;;;;;;5017356;28;20065;-73
2023/04/26 10:22:59;;;;;;;3.45;1.48;;;;;;;;;;5022173;28;20089;-72
2023/04/26 10:25:40;;;;;;;4.95;1.25;;;;;;;;;;5011928;28;20144;-74
2023/04/26 10:28:07;;;;;;;;;;;;;;;;;;5025293;28;21043;-73
2023/04/26 10:30:52;;;;;;;5.50;1.40;;;;;;;;;;5032623;28;48396;-72
2023/04/26 10:33:19;;;;;;;4.53;1.48;;;;;;;;;;5041019;28;20191;-72
2023/04/26 10:35:59;;;;;;;5.10;1.42;;;;;;;;;;5028576;28;20058;-73
2023/04/26 10:38:25;;;;;;;5.50;1.30;;;;;;;;;;5013079;28;20522;-73
2023/04/26 10:40:52;;;;;;;6.72;1.20;;;;;;;;;;5028253;28;21017;-72
2023/04/26 10:43:23;;;;;;;3.70;1.38;;;;;;;;;;5013923;28;20050;-73
2023/04/26 10:45:53;;;;;;;4.40;1.10;;;;;;;;;;5008120;28;20086;-72
2023/04/26 10:48:26;;;;;;;5.00;1.20;;;;;;;;;;5013127;28;20054;-73
2023/04/26 10:51:07;;;;;;;5.88;1.40;;;;;;;;;;5011507;28;20576;-73
2023/04/26 10:53:42;;;;;;;4.65;1.42;;;;;;;;;;5010494;28;20065;-72
2023/04/26 10:56:09;;;;;;;5.20;1.63;;;;;;;;;;5046879;28;20063;-73
2023/04/26 10:58:39;;;;;;;3.55;1.20;;;;;;;;;;5046429;28;20081;-73
2023/04/26 11:01:12;;;;;;;6.07;1.40;;;;;;;;;;5035755;28;20053;-73
2023/04/26 11:03:42;;;;;;;4.15;1.30;;;;;;;;;;5026895;28;20049;-72
2023/04/26 11:06:12;;;;;;;6.28;1.48;;;;;;;;;;5027725;28;20169;-75
2023/04/26 11:08:39;;;;;;;4.13;1.35;;;;;;;;;;5019256;28;20080;-72
2023/04/26 11:11:07;;;;;;;10.50;2.00;;;;;;;;;;5011129;28;20057;-72
2023/04/26 11:13:39;;;;;;;5.25;1.35;;;;;;;;;;5022258;28;20522;-72
2023/04/26 11:16:10;;;;;;;4.55;1.40;;;;;;;;;;5028545;28;20057;-73
2023/04/26 11:18:37;;;;;;;4.05;1.27;;;;;;;;;;5007207;28;20054;-73
2023/04/26 11:21:05;;;;;;;7.32;1.73;;;;;;;;;;5006644;28;20058;-72
2023/04/26 11:23:31;;;;;;;5.95;1.40;;;;;;;;;;5020605;28;20062;-73
2023/04/26 11:26:05;;;;;;;6.50;1.40;;;;;;;;;;5042253;28;20121;-73
2023/04/26 11:28:32;;;;;;;4.18;1.40;;;;;;;;;;5012263;28;20059;-75
2023/04/26 11:31:00;;;;;;;7.65;1.67;;;;;;;;;;5023765;28;20054;-72
2023/04/26 11:33:27;;;;;;;5.07;1.48;;;;;;;;;;5017379;28;20054;-73
2023/04/26 11:35:54;;;;;;;8.05;1.42;;;;;;;;;;5022709;28;20062;-73
2023/04/26 11:38:21;;;;;;;4.38;1.50;;;;;;;;;;5040211;28;20132;-73
2023/04/26 11:40:57;;;;;;;5.65;1.52;;;;;;;;;;5036776;28;20058;-73
2023/04/26 11:43:29;;;;;;;5.32;1.48;;;;;;;;;;5011448;28;20513;-72
2023/04/26 11:45:57;;;;;;;6.22;1.70;;;;;;;;;;5005175;28;20093;-72
2023/04/26 11:48:24;;;;;;;4.43;1.60;;;;;;;;;;5008323;28;20538;-72
2023/04/26 11:50:50;;;;;;;8.70;1.40;;;;;;;;;;5013577;28;20062;-72
2023/04/26 11:53:17;;;;;;;4.25;1.73;;;;;;;;;;5021608;28;20061;-73
2023/04/26 11:55:43;;;;;;;5.65;1.55;;;;;;;;;;5030126;28;20109;-73
2023/04/26 11:58:14;;;;;;;4.35;1.40;;;;;;;;;;5044736;28;20049;-73
2023/04/26 12:01:00;;;;;;;8.07;1.33;;;;;;;;;;5020067;28;20054;-73
2023/04/26 12:03:36;;;;;;;3.00;1.30;;;;;;;;;;5005118;28;20112;-73
2023/04/26 12:06:03;;;;;;;5.10;1.30;;;;;;;;;;5019157;28;20570;-73
2023/04/26 12:08:31;;;;;;;6.22;1.40;;;;;;;;;;5037138;28;20058;-73
2023/04/26 12:11:00;;;;;;;4.35;1.30;;;;;;;;;;5036886;28;21338;-73
2023/04/26 12:13:28;;;;;;;7.43;1.30;;;;;;;;;;5023288;28;20053;-72
2023/04/26 12:15:54;;;;;;;8.18;1.40;;;;;;;;;;5024914;28;20060;-72
2023/04/26 12:18:22;;;;;;;4.15;1.30;;;;;;;;;;5015801;28;20061;-72
2023/04/26 12:20:49;;;;;;;7.50;1.42;;;;;;;;;;5012162;28;20069;-73
2023/04/26 12:23:17;;;;;;;5.85;1.30;;;;;;;;;;5013027;28;20053;-73
2023/04/26 12:25:54;;;;;;;6.45;2.03;;;;;;;;;;5004874;28;20054;-73
2023/04/26 12:28:22;;;;;;;4.60;1.60;;;;;;;;;;5015387;28;20161;-72
2023/04/26 12:30:49;;;;;;;6.70;1.45;;;;;;;;;;5012469;28;20058;-73
2023/04/26 12:33:15;;;;;;;7.40;1.70;;;;;;;;;;5044211;28;20057;-72
2023/04/26 12:35:43;;;;;;;5.15;1.70;;;;;;;;;;5029107;28;20056;-72
2023/04/26 12:38:10;;;;;;;3.45;1.58;;;;;;;;;;5044038;28;20056;-73
2023/04/26 12:40:37;;;;;;;6.55;1.65;;;;;;;;;;5026480;28;20054;-73
2023/04/26 12:43:04;;;;;;;5.90;1.90;;;;;;;;;;5024087;28;20085;-72
2023/04/26 12:45:30;;;;;;;8.20;2.03;;;;;;;;;;5007257;28;20165;-73
2023/04/26 12:47:57;;;;;;;4.38;1.70;;;;;;;;;;5043523;28;20053;-73
2023/04/26 12:50:26;;;;;;;6.57;1.92;;;;;;;;;;5041347;28;20061;-72
2023/04/26 12:52:52;;;;;;;4.93;2.10;;;;;;;;;;5020406;28;20055;-73
2023/04/26 12:55:19;;;;;;;6.60;2.05;;;;;;;;;;5004566;28;20129;-73
2023/04/26 12:57:45;;;;;;;6.25;1.95;;;;;;;;;;5015232;28;20066;-73
2023/04/26 13:00:13;;;;;;;7.03;2.10;;;;;;;;;;5022154;28;20159;-74
2023/04/26 13:02:40;;;;;;;7.75;2.10;;;;;;;;;;5011196;28;20136;-73
2023/04/26 13:05:07;;;;;;;5.68;1.45;;;;;;;;;;5022488;28;20855;-75
2023/04/26 13:07:34;;;;;;;5.10;1.60;;;;;;;;;;5034878;28;20061;-72
2023/04/26 13:10:01;;;;;;;5.25;1.60;;;;;;;;;;5014915;28;20054;-73
2023/04/26 13:12:28;;;;;;;5.50;1.70;;;;;;;;;;5010356;28;20788;-72
2023/04/26 13:14:54;;;;;;;8.23;1.70;;;;;;;;;;5012087;28;20064;-72
2023/04/26 13:17:22;;;;;;;5.97;1.65;;;;;;;;;;5024808;28;20136;-72
2023/04/26 13:19:48;;;;;;;3.95;1.40;;;;;;;;;;5003866;28;20143;-72
2023/04/26 13:22:15;;;;;;;6.25;1.40;;;;;;;;;;5007634;28;20166;-72
2023/04/26 13:24:41;;;;;;;7.60;1.65;;;;;;;;;;5022180;28;20064;-72
2023/04/26 13:27:07;;;;;;;5.22;1.38;;;;;;;;;;5014412;28;20085;-73
2023/04/26 13:29:35;;;;;;;7.18;1.50;;;;;;;;;;5013919;28;20058;-72
2023/04/26 13:32:01;;;;;;;8.15;2.00;;;;;;;;;;5012287;28;20054;-72
2023/04/26 13:34:31;;;;;;;4.57;1.52;;;;;;;;;;5029989;28;20148;-73
2023/04/26 13:37:00;;;;;;;7.93;2.05;;;;;;;;;;5029876;28;20057;-73
2023/04/26 13:39:30;;;;;;;6.43;1.58;;;;;;;;;;5021452;28;20057;-72
2023/04/26 13:41:57;;;;;;;6.88;1.60;;;;;;;;;;5023481;28;20053;-72
2023/04/26 13:44:24;;;;;;;4.40;1.75;;;;;;;;;;5022234;28;20046;-72
2023/04/26 13:46:52;;;;;;;3.97;1.40;;;;;;;;;;5017096;28;20061;-73
2023/04/26 13:49:20;;;;;;;5.28;1.92;;;;;;;;;;5019986;28;20146;-72
2023/04/26 13:51:46;;;;;;;6.60;1.63;;;;;;;;;;5022867;28;20053;-73
2023/04/26 13:54:12;;;;;;;4.32;1.67;;;;;;;;;;5016617;28;20211;-72
2023/04/26 13:56:39;;;;;;;5.50;1.88;;;;;;;;;;5022361;28;20094;-72
2023/04/26 13:59:06;;;;;;;5.95;1.80;;;;;;;;;;5022805;28;20060;-72
2023/04/26 14:01:34;;;;;;;5.97;1.65;;;;;;;;;;5013749;28;20062;-72
2023/04/26 14:04:03;;;;;;;4.75;1.75;;;;;;;;;;5017826;28;20050;-72
2023/04/26 14:06:31;;;;;;;8.30;1.80;;;;;;;;;;5014007;28;20469;-72
2023/04/26 14:08:57;;;;;;;5.43;1.80;;;;;;;;;;5010816;28;20045;-72
2023/04/26 14:11:24;;;;;;;6.38;1.88;;;;;;;;;;5011070;28;20084;-72
2023/04/26 14:13:54;;;;;;;7.88;1.88;;;;;;;;;;5003038;28;20569;-72
2023/04/26 14:16:22;;;;;;;4.07;1.77;;;;;;;;;;5006432;28;20051;-72
2023/04/26 14:18:48;;;;;;;8.77;2.30;;;;;;;;;;5007110;28;20473;-72
2023/04/26 14:21:15;;;;;;;7.35;2.55;;;;;;;;;;5016585;28;20054;-72
2023/04/26 14:23:41;;;;;;;5.20;1.88;;;;;;;;;;5021892;28;20060;-72
2023/04/26 14:26:08;;;;;;;5.07;1.67;;;;;;;;;;5024875;28;20055;-72
2023/04/26 14:28:35;;;;;;;4.78;1.80;;;;;;;;;;5008619;28;20112;-73
2023/04/26 14:31:01;;;;;;;4.18;1.77;;;;;;;;;;5014453;28;20108;-74
2023/04/26 14:33:28;;;;;;;5.65;1.65;;;;;;;;;;5015973;28;20054;-72
2023/04/26 14:35:55;;;;;;;6.22;2.20;;;;;;;;;;5004788;28;20069;-72
2023/04/26 14:38:21;;;;;;;4.57;1.80;;;;;;;;;;5003875;28;20104;-72
2023/04/26 14:40:48;;;;;;;4.85;2.00;;;;;;;;;;5027392;28;20060;-73